Lexington, KY (40502)

7:10 AM EST on February 28, 2017 (GMT -0500)
Lansdowne Merrick | | Change Station

Elev 994 ft 38.00 °N, 84.49 °W | Updated 4 seconds ago

Thunderstorm
Thunderstorm
50.7 °F
Feels Like 50.7 °F
N
3.1
Wind Variable Wind from SSW
Gusts 11.2 mph

Today
High -- | Low -- °F
--% Chance of Precip.
Yesterday
High -- | Low -- °F
Precip. -- in
Pressure 30.13 in
Visibility 4.0 miles
Clouds Scattered Clouds 5500 ft
Mostly Cloudy 7000 ft
Overcast 8500 ft
Dew Point 47 °F
Humidity 87%
Rainfall 0.04 in
Snow Depth Not available.
7:10 AM 6:30 PM
Waxing Crescent, 4% visible
METAR KLEX 281150Z 00000KT 4SM TSRA BR SCT055 BKN070 OVC085 11/08 A3013 RMK AO2 LTG DSNT SW AND W RAB1058 TSB1058E19B49 SLP202 P0009 60009 70017 T01060083 10111 20072 53006 $
Pressure 30.13 in
Visibility 4.0 miles
Clouds Scattered Clouds 5500 ft
Mostly Cloudy 7000 ft
Overcast 8500 ft
Dew Point 47 °F
Humidity 87%
Rainfall 0.04 in
Snow Depth Not available.
7:10 AM 6:30 PM
Waxing Crescent, 4% visible
METAR KLEX 281150Z 00000KT 4SM TSRA BR SCT055 BKN070 OVC085 11/08 A3013 RMK AO2 LTG DSNT SW AND W RAB1058 TSB1058E19B49 SLP202 P0009 60009 70017 T01060083 10111 20072 53006 $

Get Your Daily Forecast Email!

Thanks for signing up!

Be on the lookout for a verification email in your inbox.

You'll start receiving the daily forecast at 8 AM.

×

10-Day Weather Forecast

Almanac

Astronomy

Feb. 28, 2017 Rise Set
Actual Time
Civil Twilight
Nautical Twilight
Astronomical Twilight
Moon
Length of Visible Light
Length of Day
Tomorrow will be .
, % of the Moon is Illuminated

Today's Extremes

State Highs State Lows

Community

WunderPhotos

Upload Photos

1,962,540 photos uploaded!

WunderBlog® & News

Nearby

Air Quality

  Air Quality AQ Index Pollutant
Not available.

Snow Depth

Station Depth Elevation

Earthquake Activity

City Distance Mag. Time & Date
Minimum magnitude displayed is 2.5.

Coastal Water Temperatures

Place Temperature

Stations

Nearby Weather Stations

Station Location Temp. Windchill Dew Point Humidity Wind Precip. Elev Updated Type
                   

Watches & Warnings

There are currently no watches in effect.